KJAC/JAC METAR and TAF weather

Enter ICAO airport designator
Station Type Date Time Source
KJAC METAR 2019/11/13 01:56 UTC NOAA

KJAC 130156Z 32004KT 10SM BKN060 OVC110 05/M12 A3007 RMK AO2 SLP231 T00501122


Station Type Date Time Source
KJAC Decoded METAR 2019/11/13 01:56 UTC NOAA

Jackson, Jackson Hole Airport, WY, United States (KJAC) 43-36N 110-44W
Nov 12, 2019 - 08:56 PM EST / 2019.11.13 0156 UTC
Wind: from the NW (320 degrees) at 5 MPH (4 KT):0
Visibility: 10 mile(s):0
Sky conditions: overcast
Temperature: 41.0 F (5.0 C)
Dew Point: 10.0 F (-12.2 C)
Relative Humidity: 27%
Pressure (altimeter): 30.07 in. Hg (1018 hPa)
ob: KJAC 130156Z 32004KT 10SM BKN060 OVC110 05/M12 A3007 RMK AO2 SLP231 T00501122
cycle: 2

Station Type Date Time Source
KJAC TAF 2019/11/12 18:36 UTC NOAA

TAF KJAC 121735Z 1218/1318 VRB04KT P6SM SCT250
FM121900 20007KT P6SM SCT250
FM130400 20009KT P6SM VCSH OVC090
FM130800 21006KT P6SM BKN090
FM131400 VRB06KT P6SM SCT150
AMD LTD TO CLD VIS AND WIND

Example: see airport list